sensor_id;sensor_type;location;lat;lon;timestamp;temperature;humidity
18932;DHT22;9598;50.954;3.112;2023-04-22T00:02:51;8.70;99.90
18932;DHT22;9598;50.954;3.112;2023-04-22T00:07:57;8.70;99.90
18932;DHT22;9598;50.954;3.112;2023-04-22T00:12:59;8.70;99.90
18932;DHT22;9598;50.954;3.112;2023-04-22T00:18:01;8.70;99.90
18932;DHT22;9598;50.954;3.112;2023-04-22T00:23:05;8.80;99.90
18932;DHT22;9598;50.954;3.112;2023-04-22T00:28:07;8.70;99.90
18932;DHT22;9598;50.954;3.112;2023-04-22T00:33:09;8.80;99.90
18932;DHT22;9598;50.954;3.112;2023-04-22T00:38:12;8.80;99.90
18932;DHT22;9598;50.954;3.112;2023-04-22T00:43:15;8.80;99.90
18932;DHT22;9598;50.954;3.112;2023-04-22T00:48:18;8.80;99.90
18932;DHT22;9598;50.954;3.112;2023-04-22T00:53:21;8.70;99.90
18932;DHT22;9598;50.954;3.112;2023-04-22T00:58:26;8.80;99.90
18932;DHT22;9598;50.954;3.112;2023-04-22T01:03:29;8.80;99.90
18932;DHT22;9598;50.954;3.112;2023-04-22T01:08:34;8.80;99.90
18932;DHT22;9598;50.954;3.112;2023-04-22T01:13:36;8.70;99.90
18932;DHT22;9598;50.954;3.112;2023-04-22T01:18:38;8.70;99.90
18932;DHT22;9598;50.954;3.112;2023-04-22T01:23:42;8.70;99.90
18932;DHT22;9598;50.954;3.112;2023-04-22T01:28:45;8.70;99.90
18932;DHT22;9598;50.954;3.112;2023-04-22T01:33:47;8.70;99.90
18932;DHT22;9598;50.954;3.112;2023-04-22T01:38:50;8.70;99.90
18932;DHT22;9598;50.954;3.112;2023-04-22T01:43:53;8.70;99.90
18932;DHT22;9598;50.954;3.112;2023-04-22T01:48:56;8.70;99.90
18932;DHT22;9598;50.954;3.112;2023-04-22T01:54:00;8.60;99.90
18932;DHT22;9598;50.954;3.112;2023-04-22T01:59:03;8.60;99.90
18932;DHT22;9598;50.954;3.112;2023-04-22T02:04:08;8.60;99.90
18932;DHT22;9598;50.954;3.112;2023-04-22T02:09:12;8.60;99.90
18932;DHT22;9598;50.954;3.112;2023-04-22T02:14:14;8.70;99.90
18932;DHT22;9598;50.954;3.112;2023-04-22T02:19:16;8.70;99.90
18932;DHT22;9598;50.954;3.112;2023-04-22T02:24:20;8.70;99.90
18932;DHT22;9598;50.954;3.112;2023-04-22T02:29:22;8.70;99.90
18932;DHT22;9598;50.954;3.112;2023-04-22T02:34:24;8.70;99.90
18932;DHT22;9598;50.954;3.112;2023-04-22T02:39:29;8.70;99.90
18932;DHT22;9598;50.954;3.112;2023-04-22T02:44:32;8.70;99.90
18932;DHT22;9598;50.954;3.112;2023-04-22T02:49:34;8.70;99.90
18932;DHT22;9598;50.954;3.112;2023-04-22T02:54:37;8.70;99.90
18932;DHT22;9598;50.954;3.112;2023-04-22T02:59:39;8.70;99.90
18932;DHT22;9598;50.954;3.112;2023-04-22T03:04:43;8.80;99.90
18932;DHT22;9598;50.954;3.112;2023-04-22T03:09:47;8.80;99.90
18932;DHT22;9598;50.954;3.112;2023-04-22T03:14:49;8.80;99.90
18932;DHT22;9598;50.954;3.112;2023-04-22T03:19:51;8.70;99.90
18932;DHT22;9598;50.954;3.112;2023-04-22T03:24:56;8.60;99.90
18932;DHT22;9598;50.954;3.112;2023-04-22T03:29:58;8.60;99.90
18932;DHT22;9598;50.954;3.112;2023-04-22T03:35:01;8.50;99.90
18932;DHT22;9598;50.954;3.112;2023-04-22T03:40:06;8.50;99.90
18932;DHT22;9598;50.954;3.112;2023-04-22T03:45:10;8.50;99.90
18932;DHT22;9598;50.954;3.112;2023-04-22T03:50:18;8.40;99.90
18932;DHT22;9598;50.954;3.112;2023-04-22T03:55:23;8.40;99.90
18932;DHT22;9598;50.954;3.112;2023-04-22T04:00:27;8.50;99.90
18932;DHT22;9598;50.954;3.112;2023-04-22T04:05:40;8.50;99.90
18932;DHT22;9598;50.954;3.112;2023-04-22T04:10:44;8.50;99.90
18932;DHT22;9598;50.954;3.112;2023-04-22T04:15:48;8.50;99.90
18932;DHT22;9598;50.954;3.112;2023-04-22T04:20:53;8.60;99.90
18932;DHT22;9598;50.954;3.112;2023-04-22T04:25:57;8.60;99.90
18932;DHT22;9598;50.954;3.112;2023-04-22T04:31:01;8.60;99.90
18932;DHT22;9598;50.954;3.112;2023-04-22T04:36:04;8.70;99.90
18932;DHT22;9598;50.954;3.112;2023-04-22T04:41:10;8.60;99.90
18932;DHT22;9598;50.954;3.112;2023-04-22T04:46:12;8.60;99.90
18932;DHT22;9598;50.954;3.112;2023-04-22T04:51:16;8.60;99.90
18932;DHT22;9598;50.954;3.112;2023-04-22T04:56:26;8.60;99.90
18932;DHT22;9598;50.954;3.112;2023-04-22T05:01:29;8.60;99.90
18932;DHT22;9598;50.954;3.112;2023-04-22T05:06:37;8.50;99.90
18932;DHT22;9598;50.954;3.112;2023-04-22T05:11:40;8.50;99.90
18932;DHT22;9598;50.954;3.112;2023-04-22T05:16:50;8.50;99.90
18932;DHT22;9598;50.954;3.112;2023-04-22T05:21:54;8.50;99.90
18932;DHT22;9598;50.954;3.112;2023-04-22T05:26:57;8.50;99.90
18932;DHT22;9598;50.954;3.112;2023-04-22T05:32:00;8.60;99.90
18932;DHT22;9598;50.954;3.112;2023-04-22T05:37:03;8.50;99.90
18932;DHT22;9598;50.954;3.112;2023-04-22T05:42:10;8.70;99.90
18932;DHT22;9598;50.954;3.112;2023-04-22T05:47:13;8.70;99.90
18932;DHT22;9598;50.954;3.112;2023-04-22T05:52:17;8.80;99.90
18932;DHT22;9598;50.954;3.112;2023-04-22T05:57:35;8.80;99.90
18932;DHT22;9598;50.954;3.112;2023-04-22T06:02:41;8.90;99.90
18932;DHT22;9598;50.954;3.112;2023-04-22T06:07:43;9.00;99.90
18932;DHT22;9598;50.954;3.112;2023-04-22T06:12:47;9.10;99.90
18932;DHT22;9598;50.954;3.112;2023-04-22T06:17:49;9.10;99.90
18932;DHT22;9598;50.954;3.112;2023-04-22T06:22:51;9.10;99.90
18932;DHT22;9598;50.954;3.112;2023-04-22T06:27:55;9.20;99.90
18932;DHT22;9598;50.954;3.112;2023-04-22T06:32:57;9.30;99.90
18932;DHT22;9598;50.954;3.112;2023-04-22T06:38:00;9.30;99.90
18932;DHT22;9598;50.954;3.112;2023-04-22T06:43:09;9.30;99.90
18932;DHT22;9598;50.954;3.112;2023-04-22T06:48:30;9.30;99.90
18932;DHT22;9598;50.954;3.112;2023-04-22T06:53:52;9.40;99.90
18932;DHT22;9598;50.954;3.112;2023-04-22T06:58:56;9.40;99.90
18932;DHT22;9598;50.954;3.112;2023-04-22T07:03:58;9.40;99.90
18932;DHT22;9598;50.954;3.112;2023-04-22T07:09:00;9.50;99.90
18932;DHT22;9598;50.954;3.112;2023-04-22T07:14:04;9.50;99.90
18932;DHT22;9598;50.954;3.112;2023-04-22T07:19:06;9.60;99.90
18932;DHT22;9598;50.954;3.112;2023-04-22T07:24:08;9.70;99.90
18932;DHT22;9598;50.954;3.112;2023-04-22T07:29:13;9.80;99.90
18932;DHT22;9598;50.954;3.112;2023-04-22T07:34:15;9.90;99.90
18932;DHT22;9598;50.954;3.112;2023-04-22T07:39:17;10.00;99.90
18932;DHT22;9598;50.954;3.112;2023-04-22T07:44:20;10.10;99.90
18932;DHT22;9598;50.954;3.112;2023-04-22T07:49:22;10.20;99.90
18932;DHT22;9598;50.954;3.112;2023-04-22T07:54:24;10.30;99.90
18932;DHT22;9598;50.954;3.112;2023-04-22T07:59:28;10.40;99.90
18932;DHT22;9598;50.954;3.112;2023-04-22T08:04:30;10.40;99.90
18932;DHT22;9598;50.954;3.112;2023-04-22T08:09:32;10.50;99.90
18932;DHT22;9598;50.954;3.112;2023-04-22T08:14:35;10.60;99.90
18932;DHT22;9598;50.954;3.112;2023-04-22T08:19:37;10.60;99.90
18932;DHT22;9598;50.954;3.112;2023-04-22T08:24:40;10.70;99.90
18932;DHT22;9598;50.954;3.112;2023-04-22T08:29:43;10.70;99.90
18932;DHT22;9598;50.954;3.112;2023-04-22T08:34:45;10.80;99.90
18932;DHT22;9598;50.954;3.112;2023-04-22T08:39:47;10.80;99.90
18932;DHT22;9598;50.954;3.112;2023-04-22T08:44:52;10.80;99.90
18932;DHT22;9598;50.954;3.112;2023-04-22T08:49:55;10.80;99.90
18932;DHT22;9598;50.954;3.112;2023-04-22T08:54:57;10.80;99.90
18932;DHT22;9598;50.954;3.112;2023-04-22T09:00:01;10.90;99.90
18932;DHT22;9598;50.954;3.112;2023-04-22T09:05:05;10.90;99.90
18932;DHT22;9598;50.954;3.112;2023-04-22T09:10:09;11.00;99.90
18932;DHT22;9598;50.954;3.112;2023-04-22T09:15:13;11.00;99.90
18932;DHT22;9598;50.954;3.112;2023-04-22T09:20:15;11.00;99.90
18932;DHT22;9598;50.954;3.112;2023-04-22T09:25:18;11.00;99.90
18932;DHT22;9598;50.954;3.112;2023-04-22T09:30:25;11.10;99.90
18932;DHT22;9598;50.954;3.112;2023-04-22T09:35:28;11.10;99.90
18932;DHT22;9598;50.954;3.112;2023-04-22T09:40:31;11.10;99.90
18932;DHT22;9598;50.954;3.112;2023-04-22T09:45:36;11.10;99.90
18932;DHT22;9598;50.954;3.112;2023-04-22T09:50:41;11.20;99.90
18932;DHT22;9598;50.954;3.112;2023-04-22T09:55:46;11.30;99.90
18932;DHT22;9598;50.954;3.112;2023-04-22T10:00:51;11.40;99.90
18932;DHT22;9598;50.954;3.112;2023-04-22T10:05:53;11.40;99.90
18932;DHT22;9598;50.954;3.112;2023-04-22T10:10:55;11.50;99.90
18932;DHT22;9598;50.954;3.112;2023-04-22T10:15:59;11.50;99.90
18932;DHT22;9598;50.954;3.112;2023-04-22T10:21:02;11.50;99.90
18932;DHT22;9598;50.954;3.112;2023-04-22T10:26:04;11.50;99.90
18932;DHT22;9598;50.954;3.112;2023-04-22T10:31:19;11.50;99.90
18932;DHT22;9598;50.954;3.112;2023-04-22T10:36:21;11.60;99.90
18932;DHT22;9598;50.954;3.112;2023-04-22T10:41:25;11.70;99.90
18932;DHT22;9598;50.954;3.112;2023-04-22T10:52:26;11.80;99.90
18932;DHT22;9598;50.954;3.112;2023-04-22T10:57:34;11.80;99.90
18932;DHT22;9598;50.954;3.112;2023-04-22T11:02:39;11.80;99.90
18932;DHT22;9598;50.954;3.112;2023-04-22T11:07:43;11.80;99.90
18932;DHT22;9598;50.954;3.112;2023-04-22T11:12:45;11.80;99.90
18932;DHT22;9598;50.954;3.112;2023-04-22T11:17:51;11.80;99.90
18932;DHT22;9598;50.954;3.112;2023-04-22T11:22:56;11.70;99.90
18932;DHT22;9598;50.954;3.112;2023-04-22T11:27:58;11.80;99.90
18932;DHT22;9598;50.954;3.112;2023-04-22T11:33:00;11.80;99.90
18932;DHT22;9598;50.954;3.112;2023-04-22T11:38:05;11.90;99.90
18932;DHT22;9598;50.954;3.112;2023-04-22T11:43:08;12.00;99.90
18932;DHT22;9598;50.954;3.112;2023-04-22T11:48:11;12.10;99.90
18932;DHT22;9598;50.954;3.112;2023-04-22T11:53:16;12.10;99.90
18932;DHT22;9598;50.954;3.112;2023-04-22T11:58:23;12.20;99.90
18932;DHT22;9598;50.954;3.112;2023-04-22T12:03:27;12.20;99.90
18932;DHT22;9598;50.954;3.112;2023-04-22T12:08:32;12.20;99.90
18932;DHT22;9598;50.954;3.112;2023-04-22T12:13:40;12.20;99.90
18932;DHT22;9598;50.954;3.112;2023-04-22T12:18:48;12.30;99.90
18932;DHT22;9598;50.954;3.112;2023-04-22T12:23:54;12.30;99.90
18932;DHT22;9598;50.954;3.112;2023-04-22T12:28:57;12.30;99.90
18932;DHT22;9598;50.954;3.112;2023-04-22T12:33:59;12.20;99.90
18932;DHT22;9598;50.954;3.112;2023-04-22T12:39:03;12.10;99.90
18932;DHT22;9598;50.954;3.112;2023-04-22T12:44:05;12.20;99.90
18932;DHT22;9598;50.954;3.112;2023-04-22T12:49:08;12.20;99.90
18932;DHT22;9598;50.954;3.112;2023-04-22T12:54:12;12.20;99.90
18932;DHT22;9598;50.954;3.112;2023-04-22T12:59:14;12.20;99.90
18932;DHT22;9598;50.954;3.112;2023-04-22T13:04:18;12.30;99.90
18932;DHT22;9598;50.954;3.112;2023-04-22T13:09:22;12.30;99.90
18932;DHT22;9598;50.954;3.112;2023-04-22T13:14:25;12.20;99.90
18932;DHT22;9598;50.954;3.112;2023-04-22T13:19:28;12.20;99.90
18932;DHT22;9598;50.954;3.112;2023-04-22T13:24:32;12.30;99.90
18932;DHT22;9598;50.954;3.112;2023-04-22T13:29:35;12.30;99.90
18932;DHT22;9598;50.954;3.112;2023-04-22T13:34:37;12.40;99.90
18932;DHT22;9598;50.954;3.112;2023-04-22T13:39:41;12.50;99.90
18932;DHT22;9598;50.954;3.112;2023-04-22T13:44:43;12.50;99.90
18932;DHT22;9598;50.954;3.112;2023-04-22T13:49:45;12.60;99.90
18932;DHT22;9598;50.954;3.112;2023-04-22T13:54:49;12.70;99.90
18932;DHT22;9598;50.954;3.112;2023-04-22T13:59:51;12.70;99.90
18932;DHT22;9598;50.954;3.112;2023-04-22T14:04:53;12.90;99.90
18932;DHT22;9598;50.954;3.112;2023-04-22T14:09:56;13.10;99.90
18932;DHT22;9598;50.954;3.112;2023-04-22T14:14:58;13.30;99.90
18932;DHT22;9598;50.954;3.112;2023-04-22T14:20:00;13.50;99.90
18932;DHT22;9598;50.954;3.112;2023-04-22T14:25:06;13.50;99.90
18932;DHT22;9598;50.954;3.112;2023-04-22T14:30:09;13.60;99.90
18932;DHT22;9598;50.954;3.112;2023-04-22T14:35:11;13.70;99.90
18932;DHT22;9598;50.954;3.112;2023-04-22T14:40:15;13.80;99.90
18932;DHT22;9598;50.954;3.112;2023-04-22T14:45:17;13.80;99.90
18932;DHT22;9598;50.954;3.112;2023-04-22T14:50:19;13.80;99.90
18932;DHT22;9598;50.954;3.112;2023-04-22T14:55:23;13.90;99.90
18932;DHT22;9598;50.954;3.112;2023-04-22T15:00:25;13.90;99.90
18932;DHT22;9598;50.954;3.112;2023-04-22T15:05:27;13.90;99.90
18932;DHT22;9598;50.954;3.112;2023-04-22T15:10:31;14.00;99.90
18932;DHT22;9598;50.954;3.112;2023-04-22T15:15:33;14.10;99.90
18932;DHT22;9598;50.954;3.112;2023-04-22T15:20:35;14.10;99.90
18932;DHT22;9598;50.954;3.112;2023-04-22T15:25:39;14.20;99.90
18932;DHT22;9598;50.954;3.112;2023-04-22T15:30:41;14.20;99.90
18932;DHT22;9598;50.954;3.112;2023-04-22T15:35:43;14.20;99.90
18932;DHT22;9598;50.954;3.112;2023-04-22T15:40:48;14.30;99.90
18932;DHT22;9598;50.954;3.112;2023-04-22T15:45:50;14.40;99.90
18932;DHT22;9598;50.954;3.112;2023-04-22T15:50:52;14.50;99.90
18932;DHT22;9598;50.954;3.112;2023-04-22T15:55:56;14.50;99.90
18932;DHT22;9598;50.954;3.112;2023-04-22T16:00:58;14.60;99.90
18932;DHT22;9598;50.954;3.112;2023-04-22T16:06:01;14.60;99.90
18932;DHT22;9598;50.954;3.112;2023-04-22T16:11:04;14.60;99.90
18932;DHT22;9598;50.954;3.112;2023-04-22T16:16:07;14.60;99.90
18932;DHT22;9598;50.954;3.112;2023-04-22T16:21:09;14.60;99.90
18932;DHT22;9598;50.954;3.112;2023-04-22T16:26:13;14.60;99.90
18932;DHT22;9598;50.954;3.112;2023-04-22T16:31:15;14.60;99.90
18932;DHT22;9598;50.954;3.112;2023-04-22T16:36:22;14.60;99.90
18932;DHT22;9598;50.954;3.112;2023-04-22T16:41:25;14.70;99.90
18932;DHT22;9598;50.954;3.112;2023-04-22T16:46:27;14.70;99.90
18932;DHT22;9598;50.954;3.112;2023-04-22T16:51:30;14.70;99.90
18932;DHT22;9598;50.954;3.112;2023-04-22T16:56:33;14.70;99.90
18932;DHT22;9598;50.954;3.112;2023-04-22T17:01:35;14.70;99.90
18932;DHT22;9598;50.954;3.112;2023-04-22T17:06:37;14.70;99.90
18932;DHT22;9598;50.954;3.112;2023-04-22T17:11:41;14.70;99.90
18932;DHT22;9598;50.954;3.112;2023-04-22T17:16:44;14.80;99.90
18932;DHT22;9598;50.954;3.112;2023-04-22T17:21:46;14.80;99.90
18932;DHT22;9598;50.954;3.112;2023-04-22T17:26:49;14.80;99.90
18932;DHT22;9598;50.954;3.112;2023-04-22T17:31:51;14.70;99.90
18932;DHT22;9598;50.954;3.112;2023-04-22T17:36:53;14.70;99.90
18932;DHT22;9598;50.954;3.112;2023-04-22T17:41:57;14.70;99.90
18932;DHT22;9598;50.954;3.112;2023-04-22T17:46:59;14.70;99.90
18932;DHT22;9598;50.954;3.112;2023-04-22T17:52:01;14.60;99.90
18932;DHT22;9598;50.954;3.112;2023-04-22T17:57:04;14.60;99.90
18932;DHT22;9598;50.954;3.112;2023-04-22T18:02:08;14.60;99.90
18932;DHT22;9598;50.954;3.112;2023-04-22T18:07:10;14.50;99.90
18932;DHT22;9598;50.954;3.112;2023-04-22T18:12:13;14.50;99.90
18932;DHT22;9598;50.954;3.112;2023-04-22T18:17:16;14.40;99.90
18932;DHT22;9598;50.954;3.112;2023-04-22T18:22:19;14.40;99.90
18932;DHT22;9598;50.954;3.112;2023-04-22T18:27:23;14.30;99.90
18932;DHT22;9598;50.954;3.112;2023-04-22T18:32:25;14.20;99.90
18932;DHT22;9598;50.954;3.112;2023-04-22T18:37:27;14.20;99.90
18932;DHT22;9598;50.954;3.112;2023-04-22T18:42:31;14.10;99.90
18932;DHT22;9598;50.954;3.112;2023-04-22T18:47:34;14.10;99.90
18932;DHT22;9598;50.954;3.112;2023-04-22T18:52:36;14.00;99.90
18932;DHT22;9598;50.954;3.112;2023-04-22T18:57:39;14.00;99.90
18932;DHT22;9598;50.954;3.112;2023-04-22T19:02:42;13.90;99.90
18932;DHT22;9598;50.954;3.112;2023-04-22T19:07:45;13.80;99.90
18932;DHT22;9598;50.954;3.112;2023-04-22T19:12:48;13.70;99.90
18932;DHT22;9598;50.954;3.112;2023-04-22T19:17:50;13.60;99.90
18932;DHT22;9598;50.954;3.112;2023-04-22T19:22:52;13.60;99.90
18932;DHT22;9598;50.954;3.112;2023-04-22T19:27:56;13.50;99.90
18932;DHT22;9598;50.954;3.112;2023-04-22T19:32:58;13.50;99.90
18932;DHT22;9598;50.954;3.112;2023-04-22T19:38:01;13.50;99.90
18932;DHT22;9598;50.954;3.112;2023-04-22T19:43:04;13.40;99.90
18932;DHT22;9598;50.954;3.112;2023-04-22T19:48:07;13.40;99.90
18932;DHT22;9598;50.954;3.112;2023-04-22T19:53:10;13.30;99.90
18932;DHT22;9598;50.954;3.112;2023-04-22T19:58:13;13.30;99.90
18932;DHT22;9598;50.954;3.112;2023-04-22T20:03:17;13.20;99.90
18932;DHT22;9598;50.954;3.112;2023-04-22T20:08:22;13.20;99.90
18932;DHT22;9598;50.954;3.112;2023-04-22T20:13:27;13.10;99.90
18932;DHT22;9598;50.954;3.112;2023-04-22T20:18:29;13.10;99.90
18932;DHT22;9598;50.954;3.112;2023-04-22T20:23:31;13.00;99.90
18932;DHT22;9598;50.954;3.112;2023-04-22T20:28:42;13.00;99.90
18932;DHT22;9598;50.954;3.112;2023-04-22T20:33:45;12.90;99.90
18932;DHT22;9598;50.954;3.112;2023-04-22T20:38:48;12.90;99.90
18932;DHT22;9598;50.954;3.112;2023-04-22T20:43:53;12.80;99.90
18932;DHT22;9598;50.954;3.112;2023-04-22T20:48:55;12.80;99.90
18932;DHT22;9598;50.954;3.112;2023-04-22T20:53:57;12.80;99.90
18932;DHT22;9598;50.954;3.112;2023-04-22T20:59:00;12.70;99.90
18932;DHT22;9598;50.954;3.112;2023-04-22T21:04:03;12.70;99.90
18932;DHT22;9598;50.954;3.112;2023-04-22T21:09:05;12.70;99.90
18932;DHT22;9598;50.954;3.112;2023-04-22T21:14:10;12.60;99.90
18932;DHT22;9598;50.954;3.112;2023-04-22T21:19:13;12.60;99.90
18932;DHT22;9598;50.954;3.112;2023-04-22T21:24:17;12.60;99.90
18932;DHT22;9598;50.954;3.112;2023-04-22T21:29:22;12.50;99.90
18932;DHT22;9598;50.954;3.112;2023-04-22T21:34:25;12.50;99.90
18932;DHT22;9598;50.954;3.112;2023-04-22T21:39:28;12.50;99.90
18932;DHT22;9598;50.954;3.112;2023-04-22T21:44:32;12.50;99.90
18932;DHT22;9598;50.954;3.112;2023-04-22T21:49:34;12.50;99.90
18932;DHT22;9598;50.954;3.112;2023-04-22T21:54:36;12.50;99.90
18932;DHT22;9598;50.954;3.112;2023-04-22T21:59:39;12.50;99.90
18932;DHT22;9598;50.954;3.112;2023-04-22T22:04:41;12.50;99.90
18932;DHT22;9598;50.954;3.112;2023-04-22T22:09:44;12.50;99.90
18932;DHT22;9598;50.954;3.112;2023-04-22T22:14:47;12.40;99.90
18932;DHT22;9598;50.954;3.112;2023-04-22T22:19:49;12.40;99.90
18932;DHT22;9598;50.954;3.112;2023-04-22T22:24:51;12.40;99.90
18932;DHT22;9598;50.954;3.112;2023-04-22T22:29:55;12.40;99.90
18932;DHT22;9598;50.954;3.112;2023-04-22T22:34:57;12.40;99.90
18932;DHT22;9598;50.954;3.112;2023-04-22T22:39:59;12.30;99.90
18932;DHT22;9598;50.954;3.112;2023-04-22T22:45:03;12.30;99.90
18932;DHT22;9598;50.954;3.112;2023-04-22T22:50:07;12.30;99.90
18932;DHT22;9598;50.954;3.112;2023-04-22T22:55:09;12.20;99.90
18932;DHT22;9598;50.954;3.112;2023-04-22T23:00:13;12.20;99.90
18932;DHT22;9598;50.954;3.112;2023-04-22T23:05:16;12.10;99.90
18932;DHT22;9598;50.954;3.112;2023-04-22T23:10:18;12.10;99.90
18932;DHT22;9598;50.954;3.112;2023-04-22T23:15:22;12.10;99.90
18932;DHT22;9598;50.954;3.112;2023-04-22T23:20:24;12.00;99.90
18932;DHT22;9598;50.954;3.112;2023-04-22T23:25:28;12.00;99.90
18932;DHT22;9598;50.954;3.112;2023-04-22T23:30:32;12.00;99.90
18932;DHT22;9598;50.954;3.112;2023-04-22T23:35:34;11.90;99.90
18932;DHT22;9598;50.954;3.112;2023-04-22T23:40:38;11.90;99.90
18932;DHT22;9598;50.954;3.112;2023-04-22T23:45:41;11.90;99.90
18932;DHT22;9598;50.954;3.112;2023-04-22T23:50:43;11.90;99.90
18932;DHT22;9598;50.954;3.112;2023-04-22T23:55:47;11.90;99.90
